sensor_id;sensor_type;location;lat;lon;timestamp;pressure;altitude;pressure_sealevel;temperature;humidity
77112;BME280;66064;50.226;14.344;2023-02-01T00:01:56;99406.00;;;4.16;71.75
77112;BME280;66064;50.226;14.344;2023-02-01T00:04:22;99406.00;;;4.16;71.64
77112;BME280;66064;50.226;14.344;2023-02-01T00:06:48;99411.78;;;4.06;72.36
77112;BME280;66064;50.226;14.344;2023-02-01T00:09:14;99412.78;;;4.10;71.80
77112;BME280;66064;50.226;14.344;2023-02-01T00:11:40;99398.31;;;3.97;72.01
77112;BME280;66064;50.226;14.344;2023-02-01T00:14:06;99404.97;;;3.86;72.41
77112;BME280;66064;50.226;14.344;2023-02-01T00:16:33;99385.25;;;3.75;71.67
77112;BME280;66064;50.226;14.344;2023-02-01T00:19:05;99384.38;;;3.74;72.37
77112;BME280;66064;50.226;14.344;2023-02-01T00:21:32;99413.91;;;3.91;72.66
77112;BME280;66064;50.226;14.344;2023-02-01T00:23:58;99405.47;;;4.01;71.70
77112;BME280;66064;50.226;14.344;2023-02-01T00:26:35;99396.19;;;4.12;71.23
77112;BME280;66064;50.226;14.344;2023-02-01T00:29:03;99402.53;;;4.17;71.99
77112;BME280;66064;50.226;14.344;2023-02-01T00:31:30;99409.75;;;4.25;71.97
77112;BME280;66064;50.226;14.344;2023-02-01T00:33:56;99409.69;;;4.21;72.10
77112;BME280;66064;50.226;14.344;2023-02-01T00:36:22;99409.75;;;4.25;72.00
77112;BME280;66064;50.226;14.344;2023-02-01T00:38:48;99412.25;;;4.20;72.41
77112;BME280;66064;50.226;14.344;2023-02-01T00:41:17;99409.56;;;4.18;72.65
77112;BME280;66064;50.226;14.344;2023-02-01T00:43:44;99386.41;;;4.08;72.68
77112;BME280;66064;50.226;14.344;2023-02-01T00:46:11;99392.09;;;4.20;73.57
77112;BME280;66064;50.226;14.344;2023-02-01T00:48:38;99372.88;;;3.98;73.65
77112;BME280;66064;50.226;14.344;2023-02-01T00:51:13;99389.97;;;4.10;73.14
77112;BME280;66064;50.226;14.344;2023-02-01T00:53:39;99398.94;;;4.15;73.91
77112;BME280;66064;50.226;14.344;2023-02-01T00:56:05;99402.41;;;3.88;74.10
77112;BME280;66064;50.226;14.344;2023-02-01T00:58:32;99392.03;;;3.94;74.55
77112;BME280;66064;50.226;14.344;2023-02-01T01:01:30;99395.78;;;4.00;74.23
77112;BME280;66064;50.226;14.344;2023-02-01T01:03:58;99396.22;;;3.87;74.64
77112;BME280;66064;50.226;14.344;2023-02-01T01:06:28;99414.00;;;3.94;74.87
77112;BME280;66064;50.226;14.344;2023-02-01T01:08:56;99416.59;;;3.93;74.90
77112;BME280;66064;50.226;14.344;2023-02-01T01:11:25;99421.91;;;3.94;75.13
77112;BME280;66064;50.226;14.344;2023-02-01T01:13:53;99414.13;;;3.97;75.25
77112;BME280;66064;50.226;14.344;2023-02-01T01:16:20;99420.88;;;3.89;75.60
77112;BME280;66064;50.226;14.344;2023-02-01T01:18:47;99420.66;;;3.83;75.40
77112;BME280;66064;50.226;14.344;2023-02-01T01:21:14;99420.88;;;3.89;75.32
77112;BME280;66064;50.226;14.344;2023-02-01T01:23:40;99411.25;;;3.90;74.50
77112;BME280;66064;50.226;14.344;2023-02-01T01:26:08;99417.38;;;3.90;75.13
77112;BME280;66064;50.226;14.344;2023-02-01T01:28:34;99421.78;;;3.91;75.59
77112;BME280;66064;50.226;14.344;2023-02-01T01:31:00;99419.16;;;3.91;74.71
77112;BME280;66064;50.226;14.344;2023-02-01T01:33:26;99420.06;;;3.92;74.77
77112;BME280;66064;50.226;14.344;2023-02-01T01:35:52;99414.78;;;3.92;74.63
77112;BME280;66064;50.226;14.344;2023-02-01T01:38:18;99415.00;;;3.98;74.68
77112;BME280;66064;50.226;14.344;2023-02-01T01:40:45;99423.91;;;4.01;73.82
77112;BME280;66064;50.226;14.344;2023-02-01T01:43:16;99419.53;;;4.02;73.68
77112;BME280;66064;50.226;14.344;2023-02-01T01:45:43;99424.94;;;4.06;73.23
77112;BME280;66064;50.226;14.344;2023-02-01T01:48:16;99409.34;;;3.85;74.18
77112;BME280;66064;50.226;14.344;2023-02-01T01:50:53;99426.31;;;3.95;73.36
77112;BME280;66064;50.226;14.344;2023-02-01T01:53:29;99407.72;;;3.89;73.01
77112;BME280;66064;50.226;14.344;2023-02-01T01:55:57;99423.19;;;4.05;71.55
77112;BME280;66064;50.226;14.344;2023-02-01T01:58:26;99424.53;;;3.94;72.10
77112;BME280;66064;50.226;14.344;2023-02-01T02:00:54;99426.22;;;3.92;72.12
77112;BME280;66064;50.226;14.344;2023-02-01T02:03:23;99425.91;;;4.08;71.10
77112;BME280;66064;50.226;14.344;2023-02-01T02:05:53;99419.31;;;4.21;70.33
77112;BME280;66064;50.226;14.344;2023-02-01T02:08:20;99428.13;;;4.21;69.35
77112;BME280;66064;50.226;14.344;2023-02-01T02:10:50;99414.06;;;4.21;69.94
77112;BME280;66064;50.226;14.344;2023-02-01T02:13:42;99411.84;;;4.08;69.62
77112;BME280;66064;50.226;14.344;2023-02-01T02:21:48;99414.53;;;3.84;69.21
77112;BME280;66064;50.226;14.344;2023-02-01T02:27:23;99438.34;;;4.12;67.42
77112;BME280;66064;50.226;14.344;2023-02-01T02:30:29;99428.53;;;4.08;68.33
77112;BME280;66064;50.226;14.344;2023-02-01T02:35:50;99449.13;;;4.20;67.80
77112;BME280;66064;50.226;14.344;2023-02-01T02:43:32;99450.72;;;4.42;65.47
77112;BME280;66064;50.226;14.344;2023-02-01T02:46:35;99410.59;;;4.22;65.07
77112;BME280;66064;50.226;14.344;2023-02-01T02:49:36;99438.22;;;4.35;66.44
77112;BME280;66064;50.226;14.344;2023-02-01T02:52:13;99409.03;;;4.29;65.32
77112;BME280;66064;50.226;14.344;2023-02-01T02:55:02;99418.81;;;4.33;66.05
77112;BME280;66064;50.226;14.344;2023-02-01T02:57:37;99441.88;;;4.40;65.83
77112;BME280;66064;50.226;14.344;2023-02-01T03:00:27;99425.47;;;4.48;64.69
77112;BME280;66064;50.226;14.344;2023-02-01T03:03:12;99411.50;;;4.51;65.11
77112;BME280;66064;50.226;14.344;2023-02-01T03:05:57;99410.88;;;4.31;66.38
77112;BME280;66064;50.226;14.344;2023-02-01T03:08:28;99413.16;;;4.47;65.87
77112;BME280;66064;50.226;14.344;2023-02-01T03:13:27;99418.47;;;4.49;66.20
77112;BME280;66064;50.226;14.344;2023-02-01T03:21:03;99403.34;;;4.43;66.67
77112;BME280;66064;50.226;14.344;2023-02-01T03:23:33;99413.16;;;4.47;67.30
77112;BME280;66064;50.226;14.344;2023-02-01T03:26:02;99376.78;;;4.36;66.90
77112;BME280;66064;50.226;14.344;2023-02-01T03:28:31;99374.88;;;4.32;67.33
77112;BME280;66064;50.226;14.344;2023-02-01T03:30:59;99381.09;;;4.34;67.71
77112;BME280;66064;50.226;14.344;2023-02-01T03:33:26;99386.25;;;4.31;67.58
77112;BME280;66064;50.226;14.344;2023-02-01T03:41:29;99363.41;;;4.03;69.03
77112;BME280;66064;50.226;14.344;2023-02-01T03:44:11;99380.66;;;4.20;67.56
77112;BME280;66064;50.226;14.344;2023-02-01T03:47:36;99379.75;;;4.19;67.01
77112;BME280;66064;50.226;14.344;2023-02-01T03:50:01;99365.53;;;4.14;67.49
77112;BME280;66064;50.226;14.344;2023-02-01T03:52:43;99347.06;;;3.86;68.27
77112;BME280;66064;50.226;14.344;2023-02-01T03:55:10;99380.84;;;3.99;68.96
77112;BME280;66064;50.226;14.344;2023-02-01T03:57:41;99389.28;;;3.89;68.88
77112;BME280;66064;50.226;14.344;2023-02-01T04:00:16;99392.84;;;3.91;68.26
77112;BME280;66064;50.226;14.344;2023-02-01T04:02:43;99393.84;;;3.95;68.47
77112;BME280;66064;50.226;14.344;2023-02-01T04:05:09;99399.91;;;3.92;68.71
77112;BME280;66064;50.226;14.344;2023-02-01T04:07:35;99372.75;;;3.68;69.12
77112;BME280;66064;50.226;14.344;2023-02-01T04:10:01;99384.97;;;3.66;69.44
77112;BME280;66064;50.226;14.344;2023-02-01T04:12:29;99374.97;;;3.56;70.17
77112;BME280;66064;50.226;14.344;2023-02-01T04:14:55;99378.94;;;3.44;70.30
77112;BME280;66064;50.226;14.344;2023-02-01T04:17:21;99395.69;;;3.46;70.59
77112;BME280;66064;50.226;14.344;2023-02-01T04:19:46;99392.94;;;3.43;70.92
77112;BME280;66064;50.226;14.344;2023-02-01T04:22:12;99388.97;;;3.55;69.84
77112;BME280;66064;50.226;14.344;2023-02-01T04:24:38;99383.34;;;3.45;70.54
77112;BME280;66064;50.226;14.344;2023-02-01T04:27:04;99388.00;;;3.53;69.04
77112;BME280;66064;50.226;14.344;2023-02-01T04:29:30;99383.78;;;3.58;68.66
77112;BME280;66064;50.226;14.344;2023-02-01T04:31:56;99379.69;;;3.66;68.25
77112;BME280;66064;50.226;14.344;2023-02-01T04:34:22;99376.13;;;3.64;68.77
77112;BME280;66064;50.226;14.344;2023-02-01T04:36:51;99375.22;;;3.63;69.76
77112;BME280;66064;50.226;14.344;2023-02-01T04:39:17;99372.47;;;3.60;70.28
77112;BME280;66064;50.226;14.344;2023-02-01T04:41:43;99357.09;;;3.47;70.18
77112;BME280;66064;50.226;14.344;2023-02-01T04:44:16;99359.00;;;3.51;70.54
77112;BME280;66064;50.226;14.344;2023-02-01T04:46:44;99351.97;;;3.50;70.71
77112;BME280;66064;50.226;14.344;2023-02-01T04:49:11;99349.28;;;3.48;70.85
77112;BME280;66064;50.226;14.344;2023-02-01T04:51:37;99349.28;;;3.48;71.06
77112;BME280;66064;50.226;14.344;2023-02-01T04:54:03;99345.19;;;3.57;70.82
77112;BME280;66064;50.226;14.344;2023-02-01T04:56:29;99347.81;;;3.57;70.16
77112;BME280;66064;50.226;14.344;2023-02-01T04:58:54;99327.38;;;3.49;71.31
77112;BME280;66064;50.226;14.344;2023-02-01T05:01:22;99323.38;;;3.61;70.51
77112;BME280;66064;50.226;14.344;2023-02-01T05:03:48;99324.94;;;3.54;70.73
77112;BME280;66064;50.226;14.344;2023-02-01T05:06:14;99333.59;;;3.51;71.20
77112;BME280;66064;50.226;14.344;2023-02-01T05:08:39;99320.22;;;3.45;71.07
77112;BME280;66064;50.226;14.344;2023-02-01T05:11:06;99339.16;;;3.61;70.82
77112;BME280;66064;50.226;14.344;2023-02-01T05:13:31;99326.47;;;3.74;70.14
77112;BME280;66064;50.226;14.344;2023-02-01T05:16:16;99330.88;;;3.75;69.45
77112;BME280;66064;50.226;14.344;2023-02-01T05:18:42;99325.56;;;3.74;68.66
77112;BME280;66064;50.226;14.344;2023-02-01T05:21:08;99320.31;;;3.74;69.80
77112;BME280;66064;50.226;14.344;2023-02-01T05:23:33;99316.53;;;3.66;69.89
77112;BME280;66064;50.226;14.344;2023-02-01T05:26:19;99309.03;;;3.78;68.62
77112;BME280;66064;50.226;14.344;2023-02-01T05:28:45;99317.84;;;3.78;68.65
77112;BME280;66064;50.226;14.344;2023-02-01T05:31:11;99321.19;;;3.74;68.35
77112;BME280;66064;50.226;14.344;2023-02-01T05:33:37;99330.56;;;3.92;67.96
77112;BME280;66064;50.226;14.344;2023-02-01T05:36:03;99329.88;;;3.97;67.76
77112;BME280;66064;50.226;14.344;2023-02-01T05:38:29;99329.03;;;3.98;68.25
77112;BME280;66064;50.226;14.344;2023-02-01T05:40:56;99306.53;;;3.81;68.31
77112;BME280;66064;50.226;14.344;2023-02-01T05:43:22;99338.72;;;3.99;67.69
77112;BME280;66064;50.226;14.344;2023-02-01T05:45:48;99321.91;;;3.96;67.35
77112;BME280;66064;50.226;14.344;2023-02-01T05:48:13;99328.41;;;4.05;66.62
77112;BME280;66064;50.226;14.344;2023-02-01T05:50:39;99318.66;;;4.03;68.29
77112;BME280;66064;50.226;14.344;2023-02-01T05:53:05;99328.81;;;3.92;68.73
77112;BME280;66064;50.226;14.344;2023-02-01T05:55:32;99294.59;;;3.92;68.19
77112;BME280;66064;50.226;14.344;2023-02-01T05:57:57;99309.06;;;4.05;68.62
77112;BME280;66064;50.226;14.344;2023-02-01T06:00:24;99305.22;;;3.95;69.04
77112;BME280;66064;50.226;14.344;2023-02-01T06:02:49;99304.38;;;3.96;68.84
77112;BME280;66064;50.226;14.344;2023-02-01T06:05:15;99316.13;;;4.07;68.46
77112;BME280;66064;50.226;14.344;2023-02-01T06:07:41;99305.59;;;4.07;69.00
77112;BME280;66064;50.226;14.344;2023-02-01T06:10:08;99280.78;;;3.99;69.20
77112;BME280;66064;50.226;14.344;2023-02-01T06:12:34;99285.28;;;4.02;69.08
77112;BME280;66064;50.226;14.344;2023-02-01T06:15:00;99283.66;;;4.07;69.58
77112;BME280;66064;50.226;14.344;2023-02-01T06:17:26;99265.72;;;3.95;69.92
77112;BME280;66064;50.226;14.344;2023-02-01T06:19:52;99281.97;;;4.09;70.16
77112;BME280;66064;50.226;14.344;2023-02-01T06:22:18;99266.56;;;3.94;70.60
77112;BME280;66064;50.226;14.344;2023-02-01T06:24:44;99276.09;;;3.89;71.26
77112;BME280;66064;50.226;14.344;2023-02-01T06:27:10;99285.94;;;3.96;71.70
77112;BME280;66064;50.226;14.344;2023-02-01T06:29:36;99288.47;;;3.93;71.34
77112;BME280;66064;50.226;14.344;2023-02-01T06:32:02;99275.03;;;3.84;71.83
77112;BME280;66064;50.226;14.344;2023-02-01T06:34:28;99284.22;;;3.97;72.28
77112;BME280;66064;50.226;14.344;2023-02-01T06:36:54;99289.63;;;4.01;72.23
77112;BME280;66064;50.226;14.344;2023-02-01T06:39:20;99282.47;;;3.97;71.73
77112;BME280;66064;50.226;14.344;2023-02-01T06:41:47;99282.38;;;3.94;72.00
77112;BME280;66064;50.226;14.344;2023-02-01T06:44:14;99286.63;;;3.89;72.33
77112;BME280;66064;50.226;14.344;2023-02-01T06:46:40;99278.72;;;3.89;72.44
77112;BME280;66064;50.226;14.344;2023-02-01T06:49:06;99280.47;;;3.90;72.41
77112;BME280;66064;50.226;14.344;2023-02-01T06:51:32;99261.53;;;3.73;72.77
77112;BME280;66064;50.226;14.344;2023-02-01T06:53:59;99266.31;;;3.85;72.86
77112;BME280;66064;50.226;14.344;2023-02-01T06:56:24;99291.13;;;3.93;72.82
77112;BME280;66064;50.226;14.344;2023-02-01T06:58:51;99255.38;;;3.73;73.79
77112;BME280;66064;50.226;14.344;2023-02-01T07:01:17;99275.63;;;3.75;73.88
77112;BME280;66064;50.226;14.344;2023-02-01T07:03:47;99266.59;;;3.67;74.17
77112;BME280;66064;50.226;14.344;2023-02-01T07:06:12;99267.38;;;3.65;74.44
77112;BME280;66064;50.226;14.344;2023-02-01T07:08:38;99280.81;;;3.74;74.85
77112;BME280;66064;50.226;14.344;2023-02-01T07:11:05;99277.97;;;3.66;75.51
77112;BME280;66064;50.226;14.344;2023-02-01T07:13:31;99283.06;;;3.62;76.24
77112;BME280;66064;50.226;14.344;2023-02-01T07:15:59;99274.22;;;3.60;76.02
77112;BME280;66064;50.226;14.344;2023-02-01T07:18:26;99274.03;;;3.54;76.01
77112;BME280;66064;50.226;14.344;2023-02-01T07:20:52;99257.41;;;3.55;75.74
77112;BME280;66064;50.226;14.344;2023-02-01T07:23:18;99277.06;;;3.66;75.88
77112;BME280;66064;50.226;14.344;2023-02-01T07:25:46;99260.94;;;3.55;76.83
77112;BME280;66064;50.226;14.344;2023-02-01T07:28:12;99279.59;;;3.63;76.72
77112;BME280;66064;50.226;14.344;2023-02-01T07:30:38;99247.22;;;3.38;77.05
77112;BME280;66064;50.226;14.344;2023-02-01T07:33:06;99269.84;;;3.60;77.36
77112;BME280;66064;50.226;14.344;2023-02-01T07:35:32;99266.84;;;3.48;77.04
77112;BME280;66064;50.226;14.344;2023-02-01T07:37:58;99275.00;;;3.56;76.45
77112;BME280;66064;50.226;14.344;2023-02-01T07:40:24;99281.53;;;3.68;76.96
77112;BME280;66064;50.226;14.344;2023-02-01T07:42:55;99272.88;;;3.71;75.96
77112;BME280;66064;50.226;14.344;2023-02-01T07:45:21;99269.78;;;3.57;76.63
77112;BME280;66064;50.226;14.344;2023-02-01T07:47:48;99275.78;;;3.80;75.66
77112;BME280;66064;50.226;14.344;2023-02-01T07:50:14;99257.81;;;3.67;76.13
77112;BME280;66064;50.226;14.344;2023-02-01T07:52:41;99273.34;;;3.86;75.37
77112;BME280;66064;50.226;14.344;2023-02-01T07:55:07;99263.78;;;3.88;74.97
77112;BME280;66064;50.226;14.344;2023-02-01T07:57:33;99271.16;;;4.00;75.12
77112;BME280;66064;50.226;14.344;2023-02-01T07:59:59;99263.47;;;4.07;74.48
77112;BME280;66064;50.226;14.344;2023-02-01T08:02:44;99245.09;;;4.09;73.40
77112;BME280;66064;50.226;14.344;2023-02-01T08:05:10;99258.94;;;4.30;72.91
77112;BME280;66064;50.226;14.344;2023-02-01T08:07:36;99244.13;;;4.34;72.74
77112;BME280;66064;50.226;14.344;2023-02-01T08:10:01;99241.63;;;4.40;71.94
77112;BME280;66064;50.226;14.344;2023-02-01T08:12:27;99232.81;;;4.38;72.36
77112;BME280;66064;50.226;14.344;2023-02-01T08:14:54;99249.09;;;4.53;71.60
77112;BME280;66064;50.226;14.344;2023-02-01T08:17:22;99248.09;;;4.49;71.73
77112;BME280;66064;50.226;14.344;2023-02-01T08:19:47;99235.63;;;4.44;71.34
77112;BME280;66064;50.226;14.344;2023-02-01T08:22:13;99248.13;;;4.51;72.00
77112;BME280;66064;50.226;14.344;2023-02-01T08:24:39;99231.38;;;4.49;70.92
77112;BME280;66064;50.226;14.344;2023-02-01T08:27:06;99215.53;;;4.47;72.15
77112;BME280;66064;50.226;14.344;2023-02-01T08:29:32;99229.84;;;4.57;70.79
77112;BME280;66064;50.226;14.344;2023-02-01T08:31:58;99234.88;;;4.48;70.95
77112;BME280;66064;50.226;14.344;2023-02-01T08:34:24;99235.06;;;4.54;71.54
77112;BME280;66064;50.226;14.344;2023-02-01T08:36:50;99231.78;;;4.63;70.88
77112;BME280;66064;50.226;14.344;2023-02-01T08:39:22;99238.78;;;4.62;70.45
77112;BME280;66064;50.226;14.344;2023-02-01T08:41:48;99221.38;;;4.67;70.52
77112;BME280;66064;50.226;14.344;2023-02-01T08:44:34;99228.38;;;4.98;69.47
77112;BME280;66064;50.226;14.344;2023-02-01T08:47:01;99213.97;;;5.20;68.42
77112;BME280;66064;50.226;14.344;2023-02-01T08:49:26;99209.75;;;5.61;67.18
77112;BME280;66064;50.226;14.344;2023-02-01T08:51:52;99211.59;;;5.63;66.64
77112;BME280;66064;50.226;14.344;2023-02-01T08:54:18;99203.09;;;5.41;66.44
77112;BME280;66064;50.226;14.344;2023-02-01T08:56:44;99201.31;;;5.40;66.97
77112;BME280;66064;50.226;14.344;2023-02-01T08:59:10;99207.03;;;5.58;67.36
77112;BME280;66064;50.226;14.344;2023-02-01T09:01:36;99206.66;;;5.79;67.04
77112;BME280;66064;50.226;14.344;2023-02-01T09:04:02;99192.56;;;5.78;65.93
77112;BME280;66064;50.226;14.344;2023-02-01T09:06:28;99199.09;;;5.92;65.20
77112;BME280;66064;50.226;14.344;2023-02-01T09:08:53;99198.47;;;6.04;65.39
77112;BME280;66064;50.226;14.344;2023-02-01T09:11:19;99197.34;;;5.93;66.19
77112;BME280;66064;50.226;14.344;2023-02-01T09:13:46;99191.31;;;5.62;66.34
77112;BME280;66064;50.226;14.344;2023-02-01T09:16:13;99178.63;;;5.46;65.86
77112;BME280;66064;50.226;14.344;2023-02-01T09:18:39;99205.94;;;5.48;66.76
77112;BME280;66064;50.226;14.344;2023-02-01T09:21:06;99200.50;;;5.42;65.98
77112;BME280;66064;50.226;14.344;2023-02-01T09:23:33;99202.19;;;5.40;66.51
77112;BME280;66064;50.226;14.344;2023-02-01T09:26:00;99190.63;;;5.34;66.10
77112;BME280;66064;50.226;14.344;2023-02-01T09:28:26;99196.03;;;5.40;65.15
77112;BME280;66064;50.226;14.344;2023-02-01T09:30:59;99192.53;;;5.41;65.58
77112;BME280;66064;50.226;14.344;2023-02-01T09:33:27;99184.81;;;5.48;64.54
77112;BME280;66064;50.226;14.344;2023-02-01T09:36:02;99191.28;;;5.61;64.14
77112;BME280;66064;50.226;14.344;2023-02-01T09:38:28;99186.81;;;5.58;63.75
77112;BME280;66064;50.226;14.344;2023-02-01T09:40:56;99189.47;;;5.58;64.01
77112;BME280;66064;50.226;14.344;2023-02-01T09:43:30;99175.19;;;5.50;64.21
77112;BME280;66064;50.226;14.344;2023-02-01T09:46:24;99192.22;;;5.63;63.77
77112;BME280;66064;50.226;14.344;2023-02-01T09:48:55;99169.94;;;5.50;63.03
77112;BME280;66064;50.226;14.344;2023-02-01T09:51:31;99162.06;;;5.53;61.79
77112;BME280;66064;50.226;14.344;2023-02-01T09:54:05;99190.59;;;5.70;62.74
77112;BME280;66064;50.226;14.344;2023-02-01T09:56:39;99187.25;;;5.77;61.86
77112;BME280;66064;50.226;14.344;2023-02-01T10:01:57;99182.91;;;5.79;61.88
77112;BME280;66064;50.226;14.344;2023-02-01T10:04:25;99172.16;;;5.71;61.96
77112;BME280;66064;50.226;14.344;2023-02-01T10:09:28;99197.06;;;5.82;61.93
77112;BME280;66064;50.226;14.344;2023-02-01T10:20:52;99181.00;;;5.37;64.61
77112;BME280;66064;50.226;14.344;2023-02-01T10:26:22;99202.78;;;5.28;68.02
77112;BME280;66064;50.226;14.344;2023-02-01T10:28:52;99202.63;;;5.22;69.12
77112;BME280;66064;50.226;14.344;2023-02-01T10:31:18;99171.56;;;5.11;69.58
77112;BME280;66064;50.226;14.344;2023-02-01T10:33:51;99186.31;;;5.04;69.78
77112;BME280;66064;50.226;14.344;2023-02-01T10:36:40;99202.31;;;5.10;69.89
77112;BME280;66064;50.226;14.344;2023-02-01T10:39:09;99189.44;;;4.89;70.57
77112;BME280;66064;50.226;14.344;2023-02-01T10:41:39;99194.84;;;4.94;70.90
77112;BME280;66064;50.226;14.344;2023-02-01T10:44:27;99210.03;;;5.03;71.51
77112;BME280;66064;50.226;14.344;2023-02-01T10:46:54;99215.94;;;4.94;72.33
77112;BME280;66064;50.226;14.344;2023-02-01T10:49:26;99211.41;;;4.88;73.22
77112;BME280;66064;50.226;14.344;2023-02-01T10:52:11;99187.34;;;4.76;73.01
77112;BME280;66064;50.226;14.344;2023-02-01T10:54:38;99175.34;;;4.87;72.53
77112;BME280;66064;50.226;14.344;2023-02-01T10:57:23;99193.72;;;4.84;72.10
77112;BME280;66064;50.226;14.344;2023-02-01T10:59:55;99197.22;;;4.83;71.59
77112;BME280;66064;50.226;14.344;2023-02-01T11:02:31;99171.84;;;4.88;71.04
77112;BME280;66064;50.226;14.344;2023-02-01T11:05:01;99185.16;;;4.93;70.53
77112;BME280;66064;50.226;14.344;2023-02-01T11:07:28;99171.25;;;4.99;70.85
77112;BME280;66064;50.226;14.344;2023-02-01T11:09:54;99177.66;;;5.08;70.25
77112;BME280;66064;50.226;14.344;2023-02-01T11:12:34;99183.19;;;5.17;69.76
77112;BME280;66064;50.226;14.344;2023-02-01T11:15:22;99189.53;;;5.25;69.31
77112;BME280;66064;50.226;14.344;2023-02-01T11:17:50;99193.22;;;5.32;68.42
77112;BME280;66064;50.226;14.344;2023-02-01T11:22:57;99187.00;;;5.30;69.87
77112;BME280;66064;50.226;14.344;2023-02-01T11:25:24;99174.50;;;5.23;68.60
77112;BME280;66064;50.226;14.344;2023-02-01T11:27:53;99187.91;;;5.31;68.36
77112;BME280;66064;50.226;14.344;2023-02-01T11:30:38;99200.56;;;5.45;68.77
77112;BME280;66064;50.226;14.344;2023-02-01T11:33:07;99188.44;;;5.52;67.86
77112;BME280;66064;50.226;14.344;2023-02-01T11:35:37;99196.38;;;5.53;69.03
77112;BME280;66064;50.226;14.344;2023-02-01T11:41:24;99215.56;;;5.46;70.34
77112;BME280;66064;50.226;14.344;2023-02-01T11:44:01;99221.97;;;5.57;69.41
77112;BME280;66064;50.226;14.344;2023-02-01T11:46:30;99196.75;;;5.70;68.74
77112;BME280;66064;50.226;14.344;2023-02-01T11:48:57;99218.03;;;6.12;67.80
77112;BME280;66064;50.226;14.344;2023-02-01T12:07:17;99202.78;;;5.99;66.00
77112;BME280;66064;50.226;14.344;2023-02-01T12:13:34;99206.63;;;6.13;64.86
77112;BME280;66064;50.226;14.344;2023-02-01T12:16:37;99203.38;;;6.26;62.09
77112;BME280;66064;50.226;14.344;2023-02-01T12:25:14;99198.31;;;6.79;60.25
77112;BME280;66064;50.226;14.344;2023-02-01T12:33:31;99201.03;;;6.40;62.59
77112;BME280;66064;50.226;14.344;2023-02-01T12:36:22;99210.31;;;6.21;64.42
77112;BME280;66064;50.226;14.344;2023-02-01T12:42:02;99176.34;;;5.97;65.36
77112;BME280;66064;50.226;14.344;2023-02-01T12:44:50;99214.47;;;6.52;65.17
77112;BME280;66064;50.226;14.344;2023-02-01T12:49:50;99190.81;;;6.58;64.85
77112;BME280;66064;50.226;14.344;2023-02-01T12:52:27;99184.63;;;7.54;62.06
77112;BME280;66064;50.226;14.344;2023-02-01T12:57:27;99160.25;;;10.37;52.33
77112;BME280;66064;50.226;14.344;2023-02-01T13:02:44;99137.19;;;10.34;50.69
77112;BME280;66064;50.226;14.344;2023-02-01T13:05:19;99132.00;;;10.71;49.88
77112;BME280;66064;50.226;14.344;2023-02-01T13:07:50;99134.34;;;10.02;50.83
77112;BME280;66064;50.226;14.344;2023-02-01T13:10:37;99108.16;;;9.33;51.72
77112;BME280;66064;50.226;14.344;2023-02-01T13:15:47;99128.09;;;8.14;52.92
77112;BME280;66064;50.226;14.344;2023-02-01T13:18:19;99126.78;;;8.47;52.76
77112;BME280;66064;50.226;14.344;2023-02-01T13:21:17;99140.94;;;7.84;53.93
77112;BME280;66064;50.226;14.344;2023-02-01T13:23:46;99130.88;;;7.58;54.10
77112;BME280;66064;50.226;14.344;2023-02-01T13:26:14;99158.41;;;7.71;55.18
77112;BME280;66064;50.226;14.344;2023-02-01T13:28:47;99139.38;;;7.98;53.91
77112;BME280;66064;50.226;14.344;2023-02-01T13:41:58;99144.91;;;7.54;56.88
77112;BME280;66064;50.226;14.344;2023-02-01T13:44:34;99147.56;;;7.54;55.98
77112;BME280;66064;50.226;14.344;2023-02-01T13:47:08;99155.47;;;7.53;54.03
77112;BME280;66064;50.226;14.344;2023-02-01T13:49:39;99139.19;;;7.27;54.97
77112;BME280;66064;50.226;14.344;2023-02-01T13:55:01;99136.31;;;7.13;55.64
77112;BME280;66064;50.226;14.344;2023-02-01T13:57:38;99129.88;;;6.97;53.85
77112;BME280;66064;50.226;14.344;2023-02-01T14:00:24;99116.28;;;6.78;54.82
77112;BME280;66064;50.226;14.344;2023-02-01T14:13:38;99144.22;;;7.12;57.27
77112;BME280;66064;50.226;14.344;2023-02-01T14:19:46;99152.13;;;7.10;59.05
77112;BME280;66064;50.226;14.344;2023-02-01T14:24:51;99133.66;;;6.63;59.73
77112;BME280;66064;50.226;14.344;2023-02-01T14:27:23;99155.72;;;6.67;60.40
77112;BME280;66064;50.226;14.344;2023-02-01T14:29:56;99140.75;;;6.67;59.78
77112;BME280;66064;50.226;14.344;2023-02-01T14:32:38;99144.06;;;6.56;59.89
77112;BME280;66064;50.226;14.344;2023-02-01T14:35:20;99148.50;;;6.57;59.64
77112;BME280;66064;50.226;14.344;2023-02-01T14:37:51;99152.81;;;6.53;60.76
77112;BME280;66064;50.226;14.344;2023-02-01T14:40:25;99124.25;;;6.34;60.74
77112;BME280;66064;50.226;14.344;2023-02-01T14:42:52;99131.06;;;6.23;61.98
77112;BME280;66064;50.226;14.344;2023-02-01T14:47:46;99146.16;;;6.28;60.63
77112;BME280;66064;50.226;14.344;2023-02-01T14:50:34;99151.38;;;6.25;61.26
77112;BME280;66064;50.226;14.344;2023-02-01T14:58:16;99166.78;;;6.04;61.38
77112;BME280;66064;50.226;14.344;2023-02-01T15:00:55;99132.34;;;6.00;59.73
77112;BME280;66064;50.226;14.344;2023-02-01T15:03:40;99163.94;;;5.95;60.25
77112;BME280;66064;50.226;14.344;2023-02-01T15:08:55;99160.97;;;5.81;61.41
77112;BME280;66064;50.226;14.344;2023-02-01T15:11:22;99153.66;;;5.71;61.92
77112;BME280;66064;50.226;14.344;2023-02-01T15:13:50;99144.59;;;5.58;62.46
77112;BME280;66064;50.226;14.344;2023-02-01T15:16:20;99167.56;;;5.62;63.62
77112;BME280;66064;50.226;14.344;2023-02-01T15:18:46;99172.47;;;5.47;63.37
77112;BME280;66064;50.226;14.344;2023-02-01T15:21:19;99151.09;;;5.37;64.46
77112;BME280;66064;50.226;14.344;2023-02-01T15:23:45;99157.38;;;5.42;64.42
77112;BME280;66064;50.226;14.344;2023-02-01T15:26:31;99138.78;;;5.37;64.04
77112;BME280;66064;50.226;14.344;2023-02-01T15:28:58;99156.19;;;5.29;65.04
77112;BME280;66064;50.226;14.344;2023-02-01T15:31:50;99154.19;;;5.19;65.44
77112;BME280;66064;50.226;14.344;2023-02-01T15:34:18;99156.63;;;5.11;66.26
77112;BME280;66064;50.226;14.344;2023-02-01T15:36:45;99139.91;;;5.11;65.80